createdAt,value
2023-02-05T00:01:23.378Z,13.15
2023-02-05T00:03:49.861Z,10.43
2023-02-05T00:06:16.379Z,10.45
2023-02-05T00:08:42.999Z,9.85
2023-02-05T00:11:09.815Z,13.52
2023-02-05T00:13:37.482Z,11.95
2023-02-05T00:16:24.451Z,9.65
2023-02-05T00:18:51.526Z,8.57
2023-02-05T00:21:19.870Z,5.93
2023-02-05T00:23:46.709Z,4.30
2023-02-05T00:26:14.288Z,7.47
2023-02-05T00:28:42.014Z,5.25
2023-02-05T00:31:17.015Z,5.32
2023-02-05T00:33:44.262Z,4.20
2023-02-05T00:36:12.895Z,7.50
2023-02-05T00:38:40.182Z,7.03
2023-02-05T00:41:06.738Z,4.85
2023-02-05T00:43:33.191Z,7.53
2023-02-05T00:45:59.766Z,3.25
2023-02-05T00:48:26.377Z,4.47
2023-02-05T00:50:52.954Z,3.63
2023-02-05T00:53:20.302Z,7.50
2023-02-05T00:55:46.959Z,4.97
2023-02-05T00:58:13.911Z,5.60
2023-02-05T01:00:40.533Z,4.32
2023-02-05T01:03:07.349Z,5.72
2023-02-05T01:05:35.243Z,5.78
2023-02-05T01:08:02.212Z,4.70
2023-02-05T01:10:29.118Z,4.80
2023-02-05T01:12:55.833Z,5.32
2023-02-05T01:15:22.433Z,5.57
2023-02-05T01:17:49.003Z,5.07
2023-02-05T01:20:15.730Z,7.88
2023-02-05T01:22:42.997Z,4.53
2023-02-05T01:25:10.528Z,5.32
2023-02-05T01:27:37.095Z,3.35
2023-02-05T01:30:05.297Z,4.72
2023-02-05T01:32:32.062Z,3.85
2023-02-05T01:34:58.511Z,4.32
2023-02-05T01:37:25.430Z,6.43
2023-02-05T01:39:52.050Z,4.82
2023-02-05T01:42:22.046Z,6.03
2023-02-05T01:45:29.630Z,5.15
2023-02-05T01:47:58.415Z,4.80
2023-02-05T01:50:32.171Z,6.32
2023-02-05T01:53:03.941Z,4.38
2023-02-05T01:55:31.373Z,4.72
2023-02-05T01:58:00.361Z,4.75
2023-02-05T02:00:27.160Z,5.13
2023-02-05T02:02:53.970Z,6.60
2023-02-05T02:05:20.472Z,6.18
2023-02-05T02:07:47.077Z,5.80
2023-02-05T02:10:15.228Z,5.90
2023-02-05T02:12:44.028Z,6.35
2023-02-05T02:15:15.603Z,6.28
2023-02-05T02:17:44.697Z,4.95
2023-02-05T02:20:18.880Z,6.43
2023-02-05T02:22:54.650Z,4.97
2023-02-05T02:25:37.981Z,6.22
2023-02-05T02:28:16.629Z,4.78
2023-02-05T02:30:59.522Z,5.18
2023-02-05T02:33:41.081Z,6.32
2023-02-05T02:36:22.044Z,5.80
2023-02-05T02:38:53.379Z,6.30
2023-02-05T02:41:27.265Z,4.03
2023-02-05T02:44:11.218Z,5.88
2023-02-05T02:46:43.006Z,5.57
2023-02-05T02:49:17.028Z,5.40
2023-02-05T02:51:45.326Z,4.05
2023-02-05T02:54:16.442Z,4.82
2023-02-05T02:56:45.125Z,5.47
2023-02-05T02:59:18.358Z,4.75
2023-02-05T03:01:54.983Z,5.68
2023-02-05T03:04:29.470Z,5.85
2023-02-05T03:07:03.563Z,6.68
2023-02-05T03:09:38.578Z,5.30
2023-02-05T03:12:05.312Z,5.63
2023-02-05T03:14:31.885Z,5.75
2023-02-05T03:16:59.966Z,5.40
2023-02-05T03:19:28.545Z,7.97
2023-02-05T03:22:00.873Z,4.68
2023-02-05T03:24:27.559Z,6.03
2023-02-05T03:26:54.927Z,8.45
2023-02-05T03:29:30.837Z,7.07
2023-02-05T03:32:36.258Z,5.57
2023-02-05T03:35:10.727Z,6.55
2023-02-05T03:38:07.134Z,6.88
2023-02-05T03:40:39.817Z,4.63
2023-02-05T03:43:36.313Z,4.72
2023-02-05T03:46:22.941Z,7.20
2023-02-05T03:49:14.803Z,3.72
2023-02-05T03:52:03.858Z,3.88
2023-02-05T03:54:45.551Z,6.22
2023-02-05T03:57:28.141Z,5.60
2023-02-05T03:59:58.441Z,4.30
2023-02-05T04:02:26.078Z,3.95
2023-02-05T04:04:54.831Z,5.68
2023-02-05T04:07:21.423Z,3.88
2023-02-05T04:09:48.647Z,6.47
2023-02-05T04:12:15.340Z,5.30
2023-02-05T04:14:43.202Z,5.38
2023-02-05T04:17:12.403Z,5.20
2023-02-05T04:19:41.498Z,6.53
2023-02-05T04:22:08.926Z,5.15
2023-02-05T04:24:38.349Z,6.80
2023-02-05T04:27:05.118Z,7.68
2023-02-05T04:29:32.092Z,6.10
2023-02-05T04:31:58.609Z,5.55
2023-02-05T04:34:25.364Z,4.35
2023-02-05T04:36:52.238Z,6.40
2023-02-05T04:39:20.331Z,5.80
2023-02-05T04:41:46.973Z,4.97
2023-02-05T04:44:14.798Z,6.65
2023-02-05T04:46:41.430Z,4.68
2023-02-05T04:49:07.858Z,6.80
2023-02-05T04:51:34.328Z,7.22
2023-02-05T04:54:00.789Z,5.68
2023-02-05T04:56:27.386Z,5.32
2023-02-05T04:58:54.053Z,4.35
2023-02-05T05:01:22.938Z,5.45
2023-02-05T05:03:50.084Z,5.03
2023-02-05T05:06:18.050Z,4.30
2023-02-05T05:08:44.918Z,5.93
2023-02-05T05:11:15.319Z,4.78
2023-02-05T05:13:42.243Z,6.28
2023-02-05T05:16:10.939Z,6.18
2023-02-05T05:18:38.311Z,7.07
2023-02-05T05:21:05.824Z,5.53
2023-02-05T05:23:33.308Z,5.63
2023-02-05T05:25:59.889Z,5.57
2023-02-05T05:28:27.709Z,6.22
2023-02-05T05:30:54.516Z,6.03
2023-02-05T05:33:21.010Z,4.50
2023-02-05T05:35:47.439Z,4.68
2023-02-05T05:38:13.958Z,6.05
2023-02-05T05:41:16.073Z,5.28
2023-02-05T05:43:48.288Z,4.97
2023-02-05T05:46:23.671Z,5.18
2023-02-05T05:48:56.139Z,4.47
2023-02-05T05:51:24.457Z,8.25
2023-02-05T05:53:51.533Z,6.53
2023-02-05T05:56:18.987Z,3.95
2023-02-05T05:58:46.361Z,5.40
2023-02-05T06:01:13.835Z,8.05
2023-02-05T06:03:40.635Z,8.18
2023-02-05T06:06:08.912Z,5.00
2023-02-05T06:08:35.401Z,4.15
2023-02-05T06:11:02.279Z,5.47
2023-02-05T06:13:28.821Z,4.22
2023-02-05T06:15:55.653Z,5.90
2023-02-05T06:18:23.798Z,4.20
2023-02-05T06:20:50.698Z,6.70
2023-02-05T06:23:17.492Z,3.97
2023-02-05T06:25:44.017Z,3.83
2023-02-05T06:28:10.597Z,4.97
2023-02-05T06:30:37.340Z,5.28
2023-02-05T06:33:04.022Z,4.75
2023-02-05T06:35:31.849Z,7.78
2023-02-05T06:37:58.633Z,5.80
2023-02-05T06:40:25.887Z,4.97
2023-02-05T06:42:53.683Z,5.78
2023-02-05T06:45:20.284Z,4.97
2023-02-05T06:47:47.261Z,4.38
2023-02-05T06:50:14.246Z,4.50
2023-02-05T06:52:40.784Z,5.35
2023-02-05T06:55:07.875Z,4.50
2023-02-05T06:57:34.373Z,4.30
2023-02-05T07:00:00.802Z,5.75
2023-02-05T07:02:27.686Z,6.07
2023-02-05T07:04:54.237Z,6.53
2023-02-05T07:07:20.711Z,5.40
2023-02-05T07:09:47.280Z,4.57
2023-02-05T07:12:13.756Z,5.53
2023-02-05T07:14:42.867Z,8.80
2023-02-05T07:17:10.626Z,4.75
2023-02-05T07:19:37.756Z,6.40
2023-02-05T07:22:05.501Z,5.07
2023-02-05T07:24:32.110Z,6.05
2023-02-05T07:26:58.593Z,5.13
2023-02-05T07:29:25.264Z,7.07
2023-02-05T07:31:52.399Z,9.15
2023-02-05T07:34:20.703Z,8.13
2023-02-05T07:36:51.046Z,7.70
2023-02-05T07:39:17.825Z,6.22
2023-02-05T07:41:44.426Z,6.63
2023-02-05T07:44:20.845Z,5.55
2023-02-05T07:46:47.543Z,5.15
2023-02-05T07:49:14.054Z,4.38
2023-02-05T07:51:41.282Z,6.68
2023-02-05T07:54:09.086Z,6.10
2023-02-05T07:56:35.967Z,5.80
2023-02-05T07:59:03.404Z,6.53
2023-02-05T08:01:30.246Z,7.88
2023-02-05T08:03:56.757Z,7.10
2023-02-05T08:06:23.371Z,6.53
2023-02-05T08:08:50.303Z,6.45
2023-02-05T08:11:18.165Z,5.03
2023-02-05T08:13:45.816Z,6.63
2023-02-05T08:16:15.683Z,6.90
2023-02-05T08:18:43.128Z,7.50
2023-02-05T08:21:09.594Z,7.40
2023-02-05T08:23:36.638Z,7.35
2023-02-05T08:26:03.230Z,9.38
2023-02-05T08:28:30.025Z,6.95
2023-02-05T08:30:57.165Z,6.80
2023-02-05T08:33:23.885Z,6.13
2023-02-05T08:35:50.361Z,5.75
2023-02-05T08:38:16.796Z,5.18
2023-02-05T08:40:43.704Z,5.93
2023-02-05T08:43:10.589Z,3.75
2023-02-05T08:45:37.683Z,5.65
2023-02-05T08:48:04.864Z,5.38
2023-02-05T08:50:31.446Z,7.63
2023-02-05T08:52:57.946Z,9.90
2023-02-05T08:55:24.378Z,11.13
2023-02-05T08:57:51.131Z,13.23
2023-02-05T09:00:18.008Z,7.47
2023-02-05T09:02:44.802Z,5.93
2023-02-05T09:05:11.339Z,5.95
2023-02-05T09:07:39.876Z,6.60
2023-02-05T09:10:09.860Z,4.95
2023-02-05T09:12:37.236Z,4.40
2023-02-05T09:15:05.334Z,7.03
2023-02-05T09:17:32.292Z,6.30
2023-02-05T09:20:01.827Z,7.75
2023-02-05T09:22:28.552Z,6.97
2023-02-05T09:24:55.129Z,7.78
2023-02-05T09:27:21.560Z,6.97
2023-02-05T09:29:48.071Z,6.28
2023-02-05T09:32:14.492Z,5.65
2023-02-05T09:34:41.376Z,5.07
2023-02-05T09:37:07.917Z,6.95
2023-02-05T09:40:17.609Z,5.68
2023-02-05T09:42:43.281Z,5.10
2023-02-05T09:45:28.064Z,4.78
2023-02-05T09:48:24.738Z,5.78
2023-02-05T09:50:52.379Z,5.28
2023-02-05T09:53:21.566Z,7.43
2023-02-05T09:55:49.776Z,6.57
2023-02-05T09:58:25.738Z,4.75
2023-02-05T10:01:05.244Z,5.10
2023-02-05T10:03:44.254Z,5.63
2023-02-05T10:06:13.557Z,4.15
2023-02-05T10:08:53.913Z,4.10
2023-02-05T10:11:38.641Z,5.88
2023-02-05T10:14:32.218Z,5.57
2023-02-05T10:17:17.492Z,7.80
2023-02-05T10:20:13.612Z,6.60
2023-02-05T10:22:57.293Z,4.30
2023-02-05T10:25:38.761Z,5.63
2023-02-05T10:28:11.234Z,6.20
2023-02-05T10:30:51.370Z,6.20
2023-02-05T10:33:27.296Z,5.97
2023-02-05T10:36:01.433Z,5.72
2023-02-05T10:38:33.704Z,5.13
2023-02-05T10:41:21.049Z,8.07
2023-02-05T10:43:59.937Z,8.38
2023-02-05T10:46:33.515Z,4.30
2023-02-05T10:49:09.342Z,3.38
2023-02-05T10:51:41.616Z,5.22
2023-02-05T10:54:29.337Z,5.35
2023-02-05T10:56:58.225Z,5.50
2023-02-05T10:59:33.720Z,5.55
2023-02-05T11:02:09.592Z,5.50
2023-02-05T11:04:44.993Z,4.70
2023-02-05T11:07:19.802Z,5.97
2023-02-05T11:09:46.290Z,3.60
2023-02-05T11:12:32.913Z,4.63
2023-02-05T11:15:02.586Z,7.80
2023-02-05T11:17:36.602Z,5.13
2023-02-05T11:20:25.950Z,6.25
2023-02-05T11:23:07.600Z,7.63
2023-02-05T11:25:35.066Z,4.95
2023-02-05T11:28:04.008Z,6.20
2023-02-05T11:30:49.945Z,4.30
2023-02-05T11:33:23.183Z,7.57
2023-02-05T11:35:54.837Z,5.07
2023-02-05T11:38:31.335Z,7.07
2023-02-05T11:41:02.565Z,3.92
2023-02-05T11:43:48.912Z,5.72
2023-02-05T11:46:20.357Z,4.65
2023-02-05T11:49:05.500Z,4.57
2023-02-05T11:51:35.076Z,5.65
2023-02-05T11:54:14.154Z,5.20
2023-02-05T11:56:40.706Z,5.93
2023-02-05T11:59:21.337Z,8.63
2023-02-05T12:01:48.773Z,5.93
2023-02-05T12:04:19.087Z,5.50
2023-02-05T12:07:12.041Z,5.57
2023-02-05T12:09:38.528Z,4.93
2023-02-05T12:12:35.554Z,5.25
2023-02-05T12:15:40.978Z,5.22
2023-02-05T12:18:38.338Z,5.63
2023-02-05T12:21:41.046Z,11.32
2023-02-05T12:24:28.930Z,4.65
2023-02-05T12:27:17.226Z,5.75
2023-02-05T12:29:43.949Z,7.47
2023-02-05T12:32:19.194Z,24.67
2023-02-05T12:34:53.969Z,6.32
2023-02-05T12:37:36.325Z,5.85
2023-02-05T12:40:21.328Z,6.93
2023-02-05T12:42:57.747Z,6.13
2023-02-05T12:46:16.404Z,4.28
2023-02-05T12:48:54.764Z,9.32
2023-02-05T12:51:43.331Z,10.13
2023-02-05T12:54:29.264Z,9.43
2023-02-05T12:57:01.905Z,8.93
2023-02-05T12:59:48.783Z,6.13
2023-02-05T13:02:32.412Z,4.57
2023-02-05T13:05:14.213Z,6.50
2023-02-05T13:07:53.897Z,10.50
2023-02-05T13:10:28.430Z,6.55
2023-02-05T13:13:05.349Z,4.72
2023-02-05T13:15:40.919Z,5.65
2023-02-05T13:18:19.222Z,4.57
2023-02-05T13:21:09.260Z,11.40
2023-02-05T13:23:56.718Z,5.18
2023-02-05T13:26:51.404Z,8.88
2023-02-05T13:29:20.026Z,5.63
2023-02-05T13:31:54.697Z,4.60
2023-02-05T13:34:23.005Z,4.63
2023-02-05T13:37:01.403Z,6.00
2023-02-05T13:39:55.426Z,5.97
2023-02-05T13:42:40.836Z,9.00
2023-02-05T13:45:40.513Z,5.95
2023-02-05T13:48:29.116Z,9.82
2023-02-05T13:51:27.457Z,5.38
2023-02-05T13:54:18.874Z,6.03
2023-02-05T13:57:10.399Z,6.25
2023-02-05T13:59:46.584Z,6.32
2023-02-05T14:02:33.604Z,5.40
2023-02-05T14:05:02.763Z,7.90
2023-02-05T14:07:33.451Z,4.93
2023-02-05T14:10:02.522Z,4.00
2023-02-05T14:12:32.709Z,6.47
2023-02-05T14:15:17.688Z,6.90
2023-02-05T14:17:44.153Z,6.50
2023-02-05T14:20:26.281Z,6.43
2023-02-05T14:22:55.168Z,14.70
2023-02-05T14:25:41.770Z,9.10
2023-02-05T14:28:17.369Z,6.95
2023-02-05T14:30:48.437Z,6.18
2023-02-05T14:33:35.613Z,5.95
2023-02-05T14:36:17.746Z,24.83
2023-02-05T14:38:55.138Z,9.00
2023-02-05T14:41:50.338Z,6.10
2023-02-05T14:44:39.367Z,14.88
2023-02-05T14:47:21.259Z,4.93
2023-02-05T14:49:49.757Z,5.28
2023-02-05T14:52:19.380Z,5.88
2023-02-05T14:54:51.367Z,5.97
2023-02-05T14:57:23.811Z,6.38
2023-02-05T15:00:14.498Z,5.57
2023-02-05T15:03:00.738Z,11.07
2023-02-05T15:05:34.964Z,16.58
2023-02-05T15:08:11.393Z,6.72
2023-02-05T15:10:47.233Z,9.55
2023-02-05T15:13:19.721Z,8.45
2023-02-05T15:16:11.083Z,7.13
2023-02-05T15:18:59.363Z,6.10
2023-02-05T15:21:34.687Z,7.35
2023-02-05T15:24:06.265Z,5.32
2023-02-05T15:27:01.449Z,8.85
2023-02-05T15:29:34.019Z,7.30
2023-02-05T15:32:24.742Z,9.45
2023-02-05T15:34:55.512Z,9.18
2023-02-05T15:37:43.538Z,6.53
2023-02-05T15:40:24.632Z,11.00
2023-02-05T15:42:57.908Z,8.27
2023-02-05T15:45:39.742Z,9.65
2023-02-05T15:48:23.901Z,17.90
2023-02-05T15:50:58.506Z,14.77
2023-02-05T15:53:34.112Z,9.00
2023-02-05T15:56:16.472Z,8.15
2023-02-05T15:58:49.766Z,8.85
2023-02-05T16:01:24.973Z,8.32
2023-02-05T16:03:51.443Z,7.80
2023-02-05T16:06:24.606Z,10.38
2023-02-05T16:08:52.533Z,8.95
2023-02-05T16:11:33.589Z,12.38
2023-02-05T16:14:14.508Z,9.63
2023-02-05T16:16:52.107Z,9.30
2023-02-05T16:19:24.902Z,11.63
2023-02-05T16:21:59.278Z,13.60
2023-02-05T16:24:34.827Z,11.93
2023-02-05T16:27:09.136Z,10.77
2023-02-05T16:29:47.936Z,10.90
2023-02-05T16:32:23.802Z,12.25
2023-02-05T16:34:50.752Z,14.07
2023-02-05T16:37:19.356Z,17.75
2023-02-05T16:39:53.478Z,16.10
2023-02-05T16:42:31.847Z,22.73
2023-02-05T16:45:10.574Z,28.25
2023-02-05T16:47:37.618Z,19.33
2023-02-05T16:50:37.470Z,18.00
2023-02-05T16:53:14.983Z,15.02
2023-02-05T16:55:46.125Z,14.52
2023-02-05T16:58:19.277Z,14.38
2023-02-05T17:00:59.442Z,12.57
2023-02-05T17:03:31.228Z,13.88
2023-02-05T17:06:01.530Z,16.13
2023-02-05T17:08:36.556Z,13.25
2023-02-05T17:11:06.369Z,8.63
2023-02-05T17:13:44.640Z,11.88
2023-02-05T17:16:29.817Z,10.23
2023-02-05T17:19:06.386Z,11.70
2023-02-05T17:21:35.163Z,17.25
2023-02-05T17:24:05.014Z,17.10
2023-02-05T17:26:35.073Z,13.30
2023-02-05T17:29:04.504Z,14.55
2023-02-05T17:31:37.798Z,13.15
2023-02-05T17:34:05.548Z,17.30
2023-02-05T17:36:32.027Z,12.35
2023-02-05T17:38:58.547Z,11.60
2023-02-05T17:41:47.050Z,12.25
2023-02-05T17:44:15.814Z,18.67
2023-02-05T17:46:43.695Z,11.00
2023-02-05T17:49:10.744Z,15.23
2023-02-05T17:51:42.653Z,13.07
2023-02-05T17:54:23.535Z,12.68
2023-02-05T17:56:50.932Z,14.25
2023-02-05T17:59:20.334Z,15.00
2023-02-05T18:01:48.247Z,15.85
2023-02-05T18:04:15.397Z,15.05
2023-02-05T18:06:42.921Z,11.25
2023-02-05T18:09:10.027Z,12.57
2023-02-05T18:11:36.779Z,15.88
2023-02-05T18:14:03.403Z,15.48
2023-02-05T18:16:30.258Z,14.55
2023-02-05T18:18:57.464Z,14.25
2023-02-05T18:21:24.646Z,16.80
2023-02-05T18:23:54.858Z,15.63
2023-02-05T18:26:21.868Z,15.95
2023-02-05T18:28:48.431Z,15.90
2023-02-05T18:31:15.482Z,18.75
2023-02-05T18:33:42.285Z,16.13
2023-02-05T18:36:13.993Z,19.40
2023-02-05T18:38:42.957Z,18.67
2023-02-05T18:41:14.837Z,19.85
2023-02-05T18:43:41.901Z,17.67
2023-02-05T18:46:16.642Z,17.27
2023-02-05T18:48:45.754Z,15.15
2023-02-05T18:51:14.387Z,17.25
2023-02-05T18:53:42.982Z,14.60
2023-02-05T18:56:14.192Z,18.45
2023-02-05T18:58:41.845Z,10.50
2023-02-05T19:01:16.281Z,11.45
2023-02-05T19:03:44.028Z,10.77
2023-02-05T19:06:14.082Z,11.30
2023-02-05T19:08:41.311Z,12.60
2023-02-05T19:11:10.635Z,11.80
2023-02-05T19:13:37.753Z,10.85
2023-02-05T19:16:06.756Z,13.65
2023-02-05T19:18:33.378Z,13.55
2023-02-05T19:21:05.256Z,11.30
2023-02-05T19:23:32.213Z,11.80
2023-02-05T19:26:02.597Z,16.95
2023-02-05T19:28:31.311Z,11.60
2023-02-05T19:31:03.593Z,9.73
2023-02-05T19:33:31.633Z,10.82
2023-02-05T19:35:59.557Z,11.13
2023-02-05T19:38:26.374Z,12.98
2023-02-05T19:40:53.062Z,13.73
2023-02-05T19:43:19.931Z,10.30
2023-02-05T19:45:47.755Z,10.45
2023-02-05T19:48:15.676Z,12.52
2023-02-05T19:50:43.752Z,12.00
2023-02-05T19:53:10.659Z,12.80
2023-02-05T19:55:37.313Z,9.32
2023-02-05T19:58:04.123Z,12.07
2023-02-05T20:00:30.778Z,10.50
2023-02-05T20:02:57.709Z,10.38
2023-02-05T20:05:24.528Z,12.25
2023-02-05T20:07:52.057Z,11.75
2023-02-05T20:10:19.146Z,14.63
2023-02-05T20:12:48.721Z,17.80
2023-02-05T20:15:16.214Z,15.95
2023-02-05T20:17:43.801Z,13.10
2023-02-05T20:20:22.255Z,10.35
2023-02-05T20:22:54.793Z,11.90
2023-02-05T20:25:21.666Z,13.10
2023-02-05T20:27:48.348Z,9.88
2023-02-05T20:30:33.426Z,9.20
2023-02-05T20:33:00.014Z,10.48
2023-02-05T20:35:26.452Z,12.30
2023-02-05T20:37:53.100Z,12.10
2023-02-05T20:40:19.688Z,12.82
2023-02-05T20:42:46.884Z,17.65
2023-02-05T20:45:13.521Z,14.25
2023-02-05T20:47:40.961Z,13.07
2023-02-05T20:50:09.286Z,11.35
2023-02-05T20:52:36.921Z,10.85
2023-02-05T20:55:03.932Z,11.40
2023-02-05T20:57:30.389Z,13.73
2023-02-05T20:59:56.882Z,12.65
2023-02-05T21:02:23.686Z,12.27
2023-02-05T21:04:52.481Z,12.43
2023-02-05T21:07:19.201Z,11.80
2023-02-05T21:09:45.635Z,13.00
2023-02-05T21:12:12.257Z,12.45
2023-02-05T21:14:38.935Z,14.38
2023-02-05T21:17:09.228Z,15.40
2023-02-05T21:19:35.686Z,14.90
2023-02-05T21:22:02.468Z,13.15
2023-02-05T21:24:29.187Z,15.80
2023-02-05T21:26:55.964Z,15.38
2023-02-05T21:29:22.501Z,14.45
2023-02-05T21:31:52.832Z,16.10
2023-02-05T21:34:26.140Z,15.30
2023-02-05T21:36:54.916Z,14.95
2023-02-05T21:39:21.924Z,14.55
2023-02-05T21:41:50.507Z,14.93
2023-02-05T21:44:17.182Z,13.82
2023-02-05T21:46:43.694Z,16.02
2023-02-05T21:49:11.531Z,16.13
2023-02-05T21:51:39.902Z,16.40
2023-02-05T21:54:06.551Z,13.90
2023-02-05T21:56:39.897Z,16.52
2023-02-05T21:59:07.516Z,15.98
2023-02-05T22:01:36.508Z,15.93
2023-02-05T22:04:07.665Z,18.52
2023-02-05T22:06:35.566Z,15.88
2023-02-05T22:09:04.812Z,15.25
2023-02-05T22:11:31.554Z,19.20
2023-02-05T22:13:58.463Z,13.48
2023-02-05T22:16:30.824Z,19.30
2023-02-05T22:18:59.292Z,18.13
2023-02-05T22:21:28.221Z,17.67
2023-02-05T22:23:56.650Z,16.08
2023-02-05T22:26:36.803Z,17.35
2023-02-05T22:29:06.594Z,14.80
2023-02-05T22:31:34.167Z,15.02
2023-02-05T22:34:00.942Z,15.05
2023-02-05T22:36:30.681Z,18.63
2023-02-05T22:38:57.866Z,17.17
2023-02-05T22:41:30.639Z,16.00
2023-02-05T22:43:58.686Z,15.85
2023-02-05T22:46:30.004Z,21.73
2023-02-05T22:48:58.485Z,15.75
2023-02-05T22:51:34.178Z,16.35
2023-02-05T22:54:01.833Z,14.65
2023-02-05T22:56:29.237Z,16.08
2023-02-05T22:58:56.883Z,15.27
2023-02-05T23:01:28.895Z,14.95
2023-02-05T23:03:57.532Z,16.63
2023-02-05T23:06:27.026Z,16.33
2023-02-05T23:08:57.339Z,14.73
2023-02-05T23:11:25.076Z,12.38
2023-02-05T23:13:51.966Z,12.77
2023-02-05T23:16:31.157Z,15.02
2023-02-05T23:19:00.710Z,15.07
2023-02-05T23:21:29.214Z,15.93
2023-02-05T23:23:56.510Z,17.73
2023-02-05T23:26:26.586Z,14.73
2023-02-05T23:28:55.221Z,16.95
2023-02-05T23:31:22.941Z,15.65
2023-02-05T23:33:49.753Z,15.07
2023-02-05T23:36:16.508Z,11.30
2023-02-05T23:38:43.034Z,12.95
2023-02-05T23:41:09.834Z,13.45
2023-02-05T23:43:37.218Z,11.20
2023-02-05T23:46:05.273Z,11.70
2023-02-05T23:48:31.855Z,11.10
2023-02-05T23:50:58.401Z,14.88
2023-02-05T23:53:25.079Z,12.20
2023-02-05T23:55:52.972Z,14.95
2023-02-05T23:58:20.926Z,13.90
